Time;durP1;ratioP1;P1;durP2;ratioP2;P2;SDS_P1;SDS_P2;PMS_P1;PMS_P2;Temp;Humidity;BMP_temperature;BMP_pressure;BME280_temperature;BME280_humidity;BME280_pressure;Samples;Min_cycle;Max_cycle;Signal;HPM_P1;HPM_P2
2021/08/19 00:00:07;;;;;;;9.40;5.90;;;;;;;;;;4973378;28;20245;-80
2021/08/19 00:02:35;;;;;;;9.57;6.30;;;;;;;;;;4966398;28;20258;-79
2021/08/19 00:05:02;;;;;;;6.33;5.50;;;;;;;;;;4973095;28;20289;-79
2021/08/19 00:07:30;;;;;;;8.00;5.90;;;;;;;;;;4973276;28;20630;-80
2021/08/19 00:09:57;;;;;;;9.43;6.33;;;;;;;;;;4983712;28;20229;-79
2021/08/19 00:12:24;;;;;;;8.73;6.37;;;;;;;;;;4986047;28;20614;-79
2021/08/19 00:14:51;;;;;;;8.80;5.73;;;;;;;;;;4980160;28;20234;-79
2021/08/19 00:17:18;;;;;;;9.37;5.93;;;;;;;;;;4974454;28;20290;-80
2021/08/19 00:19:47;;;;;;;8.87;6.10;;;;;;;;;;4977681;28;20240;-80
2021/08/19 00:22:14;;;;;;;9.23;6.17;;;;;;;;;;4992559;28;20320;-79
2021/08/19 00:24:41;;;;;;;8.70;5.93;;;;;;;;;;4981795;28;20217;-79
2021/08/19 00:27:09;;;;;;;9.50;6.40;;;;;;;;;;4972493;28;20289;-80
2021/08/19 00:29:36;;;;;;;8.30;5.80;;;;;;;;;;4973536;28;20233;-80
2021/08/19 00:32:04;;;;;;;9.10;6.30;;;;;;;;;;4982590;28;20270;-79
2021/08/19 00:34:31;;;;;;;8.90;5.60;;;;;;;;;;4992598;28;20213;-79
2021/08/19 00:36:59;;;;;;;8.57;5.63;;;;;;;;;;4992092;28;20297;-79
2021/08/19 00:39:27;;;;;;;8.10;6.00;;;;;;;;;;4992645;28;20293;-79
2021/08/19 00:41:54;;;;;;;10.03;6.07;;;;;;;;;;4973863;28;20218;-80
2021/08/19 00:44:22;;;;;;;10.43;5.73;;;;;;;;;;4984240;28;20197;-80
2021/08/19 00:46:49;;;;;;;8.70;5.67;;;;;;;;;;4992131;28;20285;-79
2021/08/19 00:49:16;;;;;;;8.37;5.70;;;;;;;;;;4992134;28;20289;-79
2021/08/19 00:51:45;;;;;;;12.10;6.10;;;;;;;;;;4991869;28;20292;-80
2021/08/19 00:54:15;;;;;;;12.30;5.67;;;;;;;;;;4987922;28;20292;-80
2021/08/19 00:56:42;;;;;;;6.57;5.83;;;;;;;;;;4979853;28;20337;-79
2021/08/19 00:59:11;;;;;;;8.43;6.03;;;;;;;;;;4988010;28;20297;-80
2021/08/19 01:01:38;;;;;;;8.93;5.70;;;;;;;;;;4992057;28;20257;-79
2021/08/19 01:04:07;;;;;;;9.67;6.07;;;;;;;;;;4974528;28;20265;-80
2021/08/19 01:06:34;;;;;;;13.17;6.50;;;;;;;;;;4981844;28;20583;-79
2021/08/19 01:09:01;;;;;;;9.13;5.93;;;;;;;;;;4977558;28;20241;-79
2021/08/19 01:11:30;;;;;;;8.93;6.00;;;;;;;;;;4979017;28;20289;-79
2021/08/19 01:13:58;;;;;;;8.03;6.23;;;;;;;;;;4981978;28;20289;-79
2021/08/19 01:16:26;;;;;;;9.60;6.10;;;;;;;;;;4971530;28;20686;-79
2021/08/19 01:18:53;;;;;;;10.90;6.43;;;;;;;;;;4991693;28;20270;-79
2021/08/19 01:21:20;;;;;;;10.73;6.43;;;;;;;;;;4991988;28;20305;-79
2021/08/19 01:23:47;;;;;;;9.93;6.37;;;;;;;;;;4987642;28;20224;-79
2021/08/19 01:26:16;;;;;;;11.67;6.67;;;;;;;;;;4982583;28;20255;-80
2021/08/19 01:28:45;;;;;;;9.73;6.73;;;;;;;;;;4991847;28;20285;-80
2021/08/19 01:31:14;;;;;;;10.67;7.57;;;;;;;;;;4978168;28;20252;-79
2021/08/19 01:33:42;;;;;;;10.17;6.90;;;;;;;;;;4953296;28;20238;-79
2021/08/19 01:36:10;;;;;;;8.30;6.57;;;;;;;;;;4953268;28;20651;-80
2021/08/19 01:38:37;;;;;;;12.17;7.27;;;;;;;;;;4985237;28;20579;-79
2021/08/19 01:41:05;;;;;;;10.10;5.77;;;;;;;;;;4979739;28;20298;-79
2021/08/19 01:43:32;;;;;;;4.53;3.40;;;;;;;;;;4992644;28;20303;-79
2021/08/19 01:46:01;;;;;;;3.93;2.17;;;;;;;;;;4976133;28;20206;-79
2021/08/19 01:48:28;;;;;;;2.67;2.13;;;;;;;;;;4975807;28;20301;-79
2021/08/19 01:50:56;;;;;;;4.47;2.33;;;;;;;;;;4982243;28;20293;-79
2021/08/19 01:53:24;;;;;;;4.53;2.30;;;;;;;;;;4978562;28;20289;-79
2021/08/19 01:55:52;;;;;;;5.60;2.70;;;;;;;;;;4986027;28;20301;-79
2021/08/19 01:58:19;;;;;;;4.10;2.60;;;;;;;;;;4987301;28;20289;-79
2021/08/19 02:00:46;;;;;;;4.57;2.70;;;;;;;;;;4993105;28;20206;-79
2021/08/19 02:03:15;;;;;;;6.03;2.77;;;;;;;;;;4974949;28;20228;-79
2021/08/19 02:05:42;;;;;;;5.97;2.53;;;;;;;;;;4992081;28;20202;-79
2021/08/19 02:08:10;;;;;;;5.83;2.97;;;;;;;;;;4983664;28;20202;-78
2021/08/19 02:10:38;;;;;;;4.73;2.77;;;;;;;;;;4977861;28;20760;-79
2021/08/19 02:13:05;;;;;;;7.43;2.83;;;;;;;;;;4994332;28;20681;-79
2021/08/19 02:15:32;;;;;;;4.43;2.47;;;;;;;;;;4993271;28;20300;-79
2021/08/19 02:18:00;;;;;;;4.50;2.83;;;;;;;;;;4994951;28;20296;-79
2021/08/19 02:20:28;;;;;;;4.37;2.83;;;;;;;;;;4994137;28;20202;-79
2021/08/19 02:22:58;;;;;;;4.60;2.87;;;;;;;;;;4993998;28;20308;-79
2021/08/19 02:25:26;;;;;;;6.80;2.87;;;;;;;;;;4982330;28;20203;-80
2021/08/19 02:27:53;;;;;;;6.43;3.03;;;;;;;;;;4975515;28;20289;-79
2021/08/19 02:30:20;;;;;;;6.33;2.83;;;;;;;;;;4988807;28;20269;-79
2021/08/19 02:32:52;;;;;;;5.37;2.90;;;;;;;;;;4990096;28;20249;-79
2021/08/19 02:35:20;;;;;;;5.37;3.10;;;;;;;;;;4993457;28;20332;-79
2021/08/19 02:37:48;;;;;;;6.13;3.27;;;;;;;;;;4993904;28;20305;-80
2021/08/19 02:40:15;;;;;;;5.60;3.30;;;;;;;;;;4993754;28;20708;-79
2021/08/19 02:42:43;;;;;;;5.63;3.00;;;;;;;;;;4985918;28;20226;-79
2021/08/19 02:45:11;;;;;;;5.30;3.00;;;;;;;;;;4974707;28;20203;-79
2021/08/19 02:47:38;;;;;;;5.17;3.07;;;;;;;;;;4974833;28;20213;-79
2021/08/19 02:50:05;;;;;;;6.13;3.17;;;;;;;;;;4974080;28;20290;-79
2021/08/19 02:52:32;;;;;;;6.47;3.03;;;;;;;;;;4974836;28;20297;-79
2021/08/19 02:55:01;;;;;;;5.83;3.20;;;;;;;;;;4982024;28;20209;-79
2021/08/19 02:57:28;;;;;;;5.33;3.10;;;;;;;;;;4974794;28;20237;-79
2021/08/19 02:59:56;;;;;;;6.37;3.20;;;;;;;;;;4980438;28;20282;-79
2021/08/19 03:02:23;;;;;;;6.73;3.10;;;;;;;;;;4993423;28;20324;-79
2021/08/19 03:04:50;;;;;;;3.27;2.50;;;;;;;;;;4974749;28;20285;-79
2021/08/19 03:07:17;;;;;;;6.97;3.30;;;;;;;;;;4974727;28;20285;-79
2021/08/19 03:09:45;;;;;;;7.67;2.90;;;;;;;;;;4973767;28;20238;-79
2021/08/19 03:12:13;;;;;;;5.47;3.00;;;;;;;;;;4976468;28;20281;-80
2021/08/19 03:14:40;;;;;;;5.77;2.90;;;;;;;;;;4993338;28;20289;-79
2021/08/19 03:17:08;;;;;;;8.37;3.17;;;;;;;;;;4973972;28;20230;-80
2021/08/19 03:19:35;;;;;;;6.23;3.33;;;;;;;;;;4976525;28;20194;-79
2021/08/19 03:22:03;;;;;;;6.70;3.00;;;;;;;;;;4976270;28;20203;-79
2021/08/19 03:24:30;;;;;;;5.53;3.00;;;;;;;;;;4987068;28;20313;-80
2021/08/19 03:26:58;;;;;;;3.93;3.10;;;;;;;;;;4993039;28;20985;-79
2021/08/19 03:29:26;;;;;;;5.87;3.00;;;;;;;;;;4992496;28;20292;-79
2021/08/19 03:31:53;;;;;;;6.53;3.10;;;;;;;;;;4989309;28;20234;-79
2021/08/19 03:34:21;;;;;;;8.33;3.27;;;;;;;;;;4973840;28;20290;-79
2021/08/19 03:36:48;;;;;;;6.17;3.37;;;;;;;;;;4982763;28;20293;-80
2021/08/19 03:39:15;;;;;;;6.43;3.40;;;;;;;;;;4982236;28;20233;-78
2021/08/19 03:41:43;;;;;;;6.67;3.20;;;;;;;;;;4976705;28;20326;-80
2021/08/19 03:44:12;;;;;;;5.97;3.07;;;;;;;;;;4988509;28;20280;-79
2021/08/19 03:46:41;;;;;;;5.10;3.00;;;;;;;;;;4993362;28;20217;-80
2021/08/19 03:49:08;;;;;;;4.27;3.00;;;;;;;;;;4991451;28;20293;-80
2021/08/19 03:51:35;;;;;;;5.00;3.13;;;;;;;;;;4989624;28;20253;-80
2021/08/19 03:54:03;;;;;;;4.37;3.13;;;;;;;;;;4979567;28;20229;-79
2021/08/19 03:56:32;;;;;;;5.97;3.23;;;;;;;;;;4981778;28;20230;-79
2021/08/19 03:58:59;;;;;;;4.40;3.33;;;;;;;;;;4973570;28;20238;-79
2021/08/19 04:01:27;;;;;;;5.27;2.80;;;;;;;;;;4975908;28;20322;-79
2021/08/19 04:03:55;;;;;;;4.60;3.27;;;;;;;;;;4987733;28;20262;-79
2021/08/19 04:06:23;;;;;;;5.57;3.23;;;;;;;;;;4973483;28;20212;-79
2021/08/19 04:08:50;;;;;;;6.20;3.40;;;;;;;;;;4990509;28;20288;-79
2021/08/19 04:11:17;;;;;;;5.77;3.40;;;;;;;;;;4989256;28;20229;-79
2021/08/19 04:13:44;;;;;;;7.37;3.67;;;;;;;;;;4974644;28;20614;-79
2021/08/19 04:16:11;;;;;;;5.67;3.40;;;;;;;;;;4973124;28;20206;-80
2021/08/19 04:18:38;;;;;;;4.27;3.10;;;;;;;;;;4983780;28;20292;-79
2021/08/19 04:21:07;;;;;;;5.60;3.40;;;;;;;;;;4992304;28;20287;-79
2021/08/19 04:23:34;;;;;;;7.97;3.40;;;;;;;;;;4988194;28;20265;-80
2021/08/19 04:26:02;;;;;;;6.23;3.63;;;;;;;;;;4973061;28;20289;-80
2021/08/19 04:28:29;;;;;;;5.10;3.40;;;;;;;;;;4981750;28;20244;-79
2021/08/19 04:30:56;;;;;;;6.83;3.67;;;;;;;;;;4992052;28;20708;-79
2021/08/19 04:33:26;;;;;;;6.37;3.60;;;;;;;;;;4990778;28;20649;-79
2021/08/19 04:35:57;;;;;;;4.73;3.23;;;;;;;;;;4984963;28;20293;-79
2021/08/19 04:38:25;;;;;;;5.63;3.43;;;;;;;;;;4972628;28;20290;-80
2021/08/19 04:40:52;;;;;;;7.37;3.60;;;;;;;;;;4973354;28;20293;-79
2021/08/19 04:43:21;;;;;;;6.53;3.60;;;;;;;;;;4973034;28;20734;-79
2021/08/19 04:45:48;;;;;;;5.73;3.53;;;;;;;;;;4972894;28;20265;-79
2021/08/19 04:48:16;;;;;;;8.07;3.73;;;;;;;;;;4981876;28;20706;-79
2021/08/19 04:50:43;;;;;;;6.20;3.70;;;;;;;;;;4984871;28;20207;-80
2021/08/19 04:53:10;;;;;;;5.17;3.23;;;;;;;;;;4984451;28;20233;-79
2021/08/19 04:55:39;;;;;;;6.20;3.50;;;;;;;;;;4992225;28;20292;-79
2021/08/19 04:58:06;;;;;;;4.73;3.40;;;;;;;;;;4990662;28;20277;-79
2021/08/19 05:00:33;;;;;;;5.13;3.63;;;;;;;;;;4991226;28;20293;-79
2021/08/19 05:03:00;;;;;;;8.87;4.10;;;;;;;;;;4991100;28;20329;-79
2021/08/19 05:05:29;;;;;;;5.70;3.87;;;;;;;;;;4991315;28;20329;-79
2021/08/19 05:07:56;;;;;;;5.30;3.77;;;;;;;;;;4990122;28;20197;-79
2021/08/19 05:10:23;;;;;;;5.53;3.80;;;;;;;;;;4992665;28;20201;-79
2021/08/19 05:12:52;;;;;;;6.93;3.57;;;;;;;;;;4992047;28;20234;-79
2021/08/19 05:15:20;;;;;;;5.63;3.10;;;;;;;;;;4976508;28;20273;-79
2021/08/19 05:17:47;;;;;;;5.03;3.60;;;;;;;;;;4976896;28;20290;-79
2021/08/19 05:20:15;;;;;;;6.97;4.33;;;;;;;;;;4977090;28;20716;-79
2021/08/19 05:22:42;;;;;;;7.17;3.57;;;;;;;;;;4976485;28;20245;-80
2021/08/19 05:25:10;;;;;;;5.50;3.30;;;;;;;;;;4984138;28;20264;-80
2021/08/19 05:27:37;;;;;;;5.00;3.40;;;;;;;;;;4985700;28;20234;-81
2021/08/19 05:30:06;;;;;;;6.83;3.50;;;;;;;;;;4980270;28;20677;-79
2021/08/19 05:32:33;;;;;;;6.53;3.50;;;;;;;;;;4996696;28;20212;-80
2021/08/19 05:35:02;;;;;;;7.00;3.83;;;;;;;;;;4996186;28;20667;-76
2021/08/19 05:37:30;;;;;;;4.73;3.67;;;;;;;;;;4992008;28;20665;-77
2021/08/19 05:39:57;;;;;;;5.20;3.97;;;;;;;;;;4995590;28;20284;-76
2021/08/19 05:42:24;;;;;;;5.47;4.10;;;;;;;;;;4980495;28;20601;-76
2021/08/19 05:44:51;;;;;;;5.87;3.73;;;;;;;;;;4984217;28;20229;-77
2021/08/19 05:47:20;;;;;;;7.53;4.20;;;;;;;;;;4985631;28;20210;-76
2021/08/19 05:49:47;;;;;;;7.07;4.13;;;;;;;;;;4988802;28;20302;-76
2021/08/19 05:52:15;;;;;;;5.27;3.70;;;;;;;;;;4976577;28;20289;-77
2021/08/19 05:54:42;;;;;;;6.60;4.07;;;;;;;;;;4986888;28;20284;-77
2021/08/19 05:57:12;;;;;;;5.80;3.80;;;;;;;;;;4983403;28;20566;-76
2021/08/19 05:59:39;;;;;;;5.07;3.80;;;;;;;;;;4979706;28;20544;-79
2021/08/19 06:02:07;;;;;;;5.90;4.00;;;;;;;;;;4986382;28;20321;-78
2021/08/19 06:04:37;;;;;;;6.13;3.60;;;;;;;;;;4984597;28;20222;-78
2021/08/19 06:07:04;;;;;;;5.53;3.93;;;;;;;;;;4956151;28;20207;-78
2021/08/19 06:09:31;;;;;;;5.03;3.83;;;;;;;;;;4956459;28;20234;-78
2021/08/19 06:11:59;;;;;;;7.20;4.20;;;;;;;;;;4990414;28;20285;-77
2021/08/19 06:14:26;;;;;;;6.37;3.83;;;;;;;;;;4984713;28;20210;-78
2021/08/19 06:16:53;;;;;;;5.27;3.43;;;;;;;;;;4975390;28;20750;-78
2021/08/19 06:19:20;;;;;;;5.07;3.70;;;;;;;;;;4974995;28;20757;-78
2021/08/19 06:21:49;;;;;;;5.67;3.73;;;;;;;;;;4979612;28;20253;-78
2021/08/19 06:24:16;;;;;;;8.63;3.80;;;;;;;;;;4983327;28;20225;-78
2021/08/19 06:26:43;;;;;;;7.93;3.70;;;;;;;;;;4975143;28;20229;-78
2021/08/19 06:29:10;;;;;;;4.57;3.30;;;;;;;;;;4977930;28;20649;-78
2021/08/19 06:31:38;;;;;;;7.43;3.40;;;;;;;;;;4994416;28;20289;-79
2021/08/19 06:34:05;;;;;;;5.80;3.30;;;;;;;;;;4994763;28;20208;-78
2021/08/19 06:36:32;;;;;;;5.97;3.50;;;;;;;;;;4994392;28;20309;-78
2021/08/19 06:39:01;;;;;;;5.27;3.40;;;;;;;;;;4995058;28;20288;-78
2021/08/19 06:41:28;;;;;;;6.80;3.50;;;;;;;;;;4992788;28;20677;-78
2021/08/19 06:43:55;;;;;;;4.93;3.23;;;;;;;;;;4994072;28;20268;-78
2021/08/19 06:46:22;;;;;;;6.63;3.30;;;;;;;;;;4993922;28;20202;-77
2021/08/19 06:48:49;;;;;;;4.83;3.00;;;;;;;;;;4993752;28;20288;-78
2021/08/19 06:51:16;;;;;;;5.53;3.00;;;;;;;;;;4991956;28;20208;-78
2021/08/19 06:53:44;;;;;;;4.43;3.00;;;;;;;;;;4974897;28;20293;-78
2021/08/19 06:56:12;;;;;;;4.33;3.00;;;;;;;;;;4974697;28;20234;-78
2021/08/19 06:58:39;;;;;;;4.53;2.93;;;;;;;;;;4973973;28;20261;-78
2021/08/19 07:01:06;;;;;;;3.80;2.83;;;;;;;;;;4978384;28;20721;-78
2021/08/19 07:03:34;;;;;;;6.00;2.80;;;;;;;;;;4992472;28;20344;-77
2021/08/19 07:06:01;;;;;;;3.90;2.83;;;;;;;;;;4993702;28;20212;-78
2021/08/19 07:08:28;;;;;;;3.93;2.77;;;;;;;;;;4993756;28;20288;-78
2021/08/19 07:10:55;;;;;;;4.57;2.80;;;;;;;;;;4975563;28;20314;-78
2021/08/19 07:13:24;;;;;;;2.87;2.40;;;;;;;;;;4973634;28;20289;-78
2021/08/19 07:15:51;;;;;;;3.37;2.50;;;;;;;;;;4974234;28;20230;-78
2021/08/19 07:18:18;;;;;;;4.67;2.33;;;;;;;;;;4973978;28;20289;-78
2021/08/19 07:20:45;;;;;;;4.17;2.60;;;;;;;;;;4974089;28;20293;-78
2021/08/19 07:23:12;;;;;;;4.37;2.10;;;;;;;;;;4974569;28;20289;-78
2021/08/19 07:25:40;;;;;;;4.17;2.43;;;;;;;;;;4973986;28;20321;-78
2021/08/19 07:28:07;;;;;;;4.37;2.53;;;;;;;;;;4973917;28;20226;-78
2021/08/19 07:30:35;;;;;;;7.00;2.87;;;;;;;;;;4991468;28;20288;-78
2021/08/19 07:33:03;;;;;;;5.77;2.43;;;;;;;;;;4991887;28;20296;-79
2021/08/19 07:35:30;;;;;;;3.43;2.70;;;;;;;;;;4974820;28;20313;-78
2021/08/19 07:37:58;;;;;;;3.73;2.30;;;;;;;;;;4973212;28;20293;-78
2021/08/19 07:40:26;;;;;;;4.07;2.15;;;;;;;;;;4979433;28;20240;-78
2021/08/19 07:42:54;;;;;;;3.72;2.30;;;;;;;;;;4979692;28;20303;-78
2021/08/19 07:45:22;;;;;;;3.60;2.30;;;;;;;;;;4980807;28;20246;-79
2021/08/19 07:47:50;;;;;;;4.57;2.35;;;;;;;;;;4973358;28;20286;-78
2021/08/19 07:50:18;;;;;;;3.78;2.30;;;;;;;;;;4973713;28;20304;-78
2021/08/19 07:52:45;;;;;;;2.90;1.98;;;;;;;;;;4967977;28;20214;-78
2021/08/19 07:55:13;;;;;;;4.80;2.40;;;;;;;;;;4973116;28;20287;-79
2021/08/19 07:57:41;;;;;;;4.38;2.10;;;;;;;;;;4973294;28;20286;-78
2021/08/19 08:00:09;;;;;;;2.85;2.00;;;;;;;;;;4973144;28;20281;-79
2021/08/19 08:02:36;;;;;;;3.40;2.22;;;;;;;;;;4972769;28;20329;-79
2021/08/19 08:05:05;;;;;;;4.13;2.33;;;;;;;;;;4975254;28;20277;-79
2021/08/19 08:07:33;;;;;;;3.97;2.10;;;;;;;;;;4980760;28;20628;-78
2021/08/19 08:10:00;;;;;;;3.78;1.90;;;;;;;;;;4987103;28;20236;-79
2021/08/19 08:12:27;;;;;;;2.88;2.08;;;;;;;;;;4972992;28;20209;-79
2021/08/19 08:14:54;;;;;;;4.50;2.00;;;;;;;;;;4972723;28;20241;-78
2021/08/19 08:17:22;;;;;;;3.08;1.85;;;;;;;;;;4972997;28;20203;-78
2021/08/19 08:19:49;;;;;;;3.65;2.00;;;;;;;;;;4972909;28;20776;-78
2021/08/19 08:22:18;;;;;;;3.42;2.05;;;;;;;;;;4985530;28;20288;-79
2021/08/19 08:24:45;;;;;;;3.63;2.13;;;;;;;;;;4977731;28;20241;-79
2021/08/19 08:27:13;;;;;;;2.95;2.15;;;;;;;;;;4972973;28;20636;-79
2021/08/19 08:29:41;;;;;;;3.45;2.40;;;;;;;;;;4982982;28;20637;-79
2021/08/19 08:32:10;;;;;;;5.88;2.83;;;;;;;;;;4972548;28;20282;-79
2021/08/19 08:34:38;;;;;;;3.25;2.30;;;;;;;;;;4975568;28;20199;-78
2021/08/19 08:37:05;;;;;;;3.15;2.10;;;;;;;;;;4986794;28;20260;-79
2021/08/19 08:39:36;;;;;;;3.00;2.40;;;;;;;;;;4981151;28;20219;-79
2021/08/19 08:42:06;;;;;;;3.85;2.50;;;;;;;;;;4984599;28;20209;-78
2021/08/19 08:44:33;;;;;;;6.47;2.60;;;;;;;;;;4985110;28;20237;-81
2021/08/19 08:47:01;;;;;;;3.08;2.58;;;;;;;;;;4979461;28;20241;-81
2021/08/19 08:49:29;;;;;;;4.65;2.70;;;;;;;;;;4978852;28;20202;-81
2021/08/19 08:51:57;;;;;;;3.53;2.35;;;;;;;;;;4975356;28;20207;-81
2021/08/19 08:54:25;;;;;;;5.57;2.30;;;;;;;;;;4988109;28;20229;-81
2021/08/19 08:56:54;;;;;;;2.80;1.92;;;;;;;;;;4978449;28;20257;-81
2021/08/19 08:59:21;;;;;;;2.42;1.98;;;;;;;;;;4976181;28;20285;-81
2021/08/19 09:01:48;;;;;;;5.45;2.35;;;;;;;;;;4982660;28;20225;-82
2021/08/19 09:04:15;;;;;;;3.05;2.00;;;;;;;;;;4984980;28;20317;-81
2021/08/19 09:06:43;;;;;;;3.35;1.83;;;;;;;;;;4985007;28;20225;-81
2021/08/19 09:09:21;;;;;;;8.80;2.20;;;;;;;;;;4991386;28;20289;-82
2021/08/19 09:11:49;;;;;;;2.05;1.35;;;;;;;;;;4986836;28;20729;-81
2021/08/19 09:14:19;;;;;;;2.25;1.70;;;;;;;;;;4984504;28;20301;-81
2021/08/19 09:16:47;;;;;;;1.98;1.50;;;;;;;;;;4990152;28;20980;-81
2021/08/19 09:19:15;;;;;;;2.40;1.60;;;;;;;;;;4994824;28;20205;-81
2021/08/19 09:21:53;;;;;;;2.70;1.58;;;;;;;;;;4992805;28;20260;-81
2021/08/19 09:24:21;;;;;;;2.55;1.88;;;;;;;;;;4976718;28;20249;-81
2021/08/19 09:26:48;;;;;;;2.47;1.80;;;;;;;;;;4989516;28;20268;-82
2021/08/19 09:29:18;;;;;;;2.17;1.63;;;;;;;;;;4977072;28;20234;-82
2021/08/19 09:31:45;;;;;;;3.05;1.80;;;;;;;;;;4975633;28;21767;-81
2021/08/19 09:34:12;;;;;;;2.40;1.80;;;;;;;;;;4964926;28;20201;-81
2021/08/19 09:36:40;;;;;;;2.22;2.03;;;;;;;;;;4978705;28;20285;-81
2021/08/19 09:39:08;;;;;;;3.58;2.15;;;;;;;;;;4981025;28;20209;-82
2021/08/19 09:41:50;;;;;;;2.80;2.60;;;;;;;;;;4982742;28;20638;-82
2021/08/19 09:44:29;;;;;;;3.08;2.40;;;;;;;;;;4985083;28;20202;-82
2021/08/19 09:46:56;;;;;;;2.53;1.90;;;;;;;;;;4982808;28;20597;-82
2021/08/19 09:49:23;;;;;;;2.30;1.90;;;;;;;;;;4991657;28;20288;-82
2021/08/19 09:52:04;;;;;;;2.95;2.22;;;;;;;;;;4960940;28;20301;-80
2021/08/19 09:54:32;;;;;;;3.00;2.35;;;;;;;;;;4970025;28;20256;-80
2021/08/19 09:57:00;;;;;;;2.55;2.30;;;;;;;;;;4988937;28;20284;-81
2021/08/19 09:59:33;;;;;;;2.50;2.30;;;;;;;;;;4976917;28;20208;-81
2021/08/19 10:02:01;;;;;;;2.45;2.08;;;;;;;;;;4985674;28;20233;-80
2021/08/19 10:04:28;;;;;;;2.65;2.35;;;;;;;;;;4985474;28;20267;-81
2021/08/19 10:06:56;;;;;;;3.10;2.40;;;;;;;;;;4979599;28;20285;-80
2021/08/19 10:09:23;;;;;;;3.97;3.58;;;;;;;;;;4989738;28;20205;-81
2021/08/19 10:11:51;;;;;;;9.13;7.40;;;;;;;;;;4976402;28;20237;-81
2021/08/19 10:14:19;;;;;;;7.53;5.05;;;;;;;;;;4990567;28;20293;-81
2021/08/19 10:16:48;;;;;;;5.38;4.50;;;;;;;;;;4974654;28;20370;-81
2021/08/19 10:19:19;;;;;;;3.80;2.13;;;;;;;;;;4974822;28;20245;-81
2021/08/19 10:21:50;;;;;;;2.33;2.13;;;;;;;;;;4977209;28;20202;-81
2021/08/19 10:24:18;;;;;;;3.25;2.20;;;;;;;;;;4979234;28;20208;-81
2021/08/19 10:26:45;;;;;;;4.00;2.60;;;;;;;;;;4990625;28;20269;-80
2021/08/19 10:29:12;;;;;;;4.60;2.38;;;;;;;;;;4981156;28;20306;-81
2021/08/19 10:31:41;;;;;;;2.60;2.40;;;;;;;;;;4983589;28;20234;-81
2021/08/19 10:34:10;;;;;;;2.67;2.28;;;;;;;;;;4982525;28;20207;-80
2021/08/19 10:36:50;;;;;;;4.18;2.80;;;;;;;;;;4988718;28;20729;-81
2021/08/19 10:39:30;;;;;;;3.92;2.50;;;;;;;;;;4982235;28;20198;-81
2021/08/19 10:41:58;;;;;;;2.90;2.70;;;;;;;;;;4974609;28;20416;-81
2021/08/19 10:44:33;;;;;;;3.90;2.22;;;;;;;;;;4988353;28;20229;-81
2021/08/19 10:47:00;;;;;;;2.47;2.28;;;;;;;;;;4988486;28;20657;-80
2021/08/19 10:49:36;;;;;;;3.28;2.70;;;;;;;;;;4979323;28;20206;-80
2021/08/19 10:52:21;;;;;;;2.92;2.47;;;;;;;;;;4974803;28;20313;-81
2021/08/19 10:54:50;;;;;;;3.97;2.67;;;;;;;;;;4977469;28;20290;-82
2021/08/19 10:57:30;;;;;;;3.58;2.55;;;;;;;;;;4977741;28;20199;-80
2021/08/19 10:59:58;;;;;;;2.67;2.33;;;;;;;;;;4993057;28;20202;-81
2021/08/19 11:02:41;;;;;;;6.40;2.40;;;;;;;;;;4979638;28;20262;-81
2021/08/19 11:05:11;;;;;;;3.20;2.47;;;;;;;;;;4973980;28;20257;-80
2021/08/19 11:07:46;;;;;;;4.63;2.50;;;;;;;;;;4974917;28;20207;-81
2021/08/19 11:10:13;;;;;;;2.90;2.25;;;;;;;;;;4981690;28;20201;-81
2021/08/19 11:12:40;;;;;;;2.83;2.35;;;;;;;;;;4993606;28;20297;-80
2021/08/19 11:15:11;;;;;;;3.03;2.33;;;;;;;;;;4993099;28;20293;-80
2021/08/19 11:17:39;;;;;;;2.78;2.35;;;;;;;;;;4981123;28;20198;-80
2021/08/19 11:23:03;;;;;;;2.65;2.22;;;;;;;;;;5089582;27;20672;-82
2021/08/19 11:25:30;;;;;;;3.70;2.22;;;;;;;;;;5082627;28;20219;-82
2021/08/19 11:28:07;;;;;;;3.47;2.42;;;;;;;;;;5076554;28;20282;-82
2021/08/19 11:30:36;;;;;;;2.60;2.40;;;;;;;;;;5074277;28;20194;-82
2021/08/19 11:33:21;;;;;;;3.45;2.30;;;;;;;;;;5083234;28;20195;-81
2021/08/19 11:35:48;;;;;;;2.72;2.33;;;;;;;;;;5073710;28;20294;-82
2021/08/19 11:38:17;;;;;;;3.85;2.40;;;;;;;;;;5084727;28;20883;-82
2021/08/19 11:40:46;;;;;;;2.85;2.40;;;;;;;;;;5068374;28;20581;-82
2021/08/19 11:43:20;;;;;;;3.47;2.28;;;;;;;;;;5078202;28;20233;-82
2021/08/19 11:45:47;;;;;;;3.63;2.38;;;;;;;;;;5073630;28;20290;-82
2021/08/19 11:48:15;;;;;;;3.58;2.40;;;;;;;;;;5083079;28;20278;-82
2021/08/19 11:50:42;;;;;;;2.45;2.08;;;;;;;;;;5082938;28;20663;-82
2021/08/19 11:53:10;;;;;;;3.10;2.00;;;;;;;;;;5068336;28;20210;-82
2021/08/19 11:55:39;;;;;;;2.58;2.10;;;;;;;;;;5078148;28;20248;-83
2021/08/19 11:58:16;;;;;;;3.38;1.98;;;;;;;;;;5089580;28;20290;-82
2021/08/19 12:00:56;;;;;;;2.53;2.20;;;;;;;;;;5070540;28;20698;-82
2021/08/19 12:03:23;;;;;;;4.57;2.10;;;;;;;;;;5057115;28;20645;-83
2021/08/19 12:05:58;;;;;;;3.45;2.33;;;;;;;;;;5063721;28;20245;-83
2021/08/19 12:08:26;;;;;;;4.43;2.20;;;;;;;;;;5051886;28;20306;-83
2021/08/19 12:10:55;;;;;;;4.20;2.20;;;;;;;;;;5056165;28;20567;-83
2021/08/19 12:13:23;;;;;;;3.47;2.38;;;;;;;;;;5050534;28;20274;-84
2021/08/19 12:15:50;;;;;;;2.83;2.30;;;;;;;;;;5051461;28;20594;-82
2021/08/19 12:18:21;;;;;;;2.63;2.20;;;;;;;;;;5063449;28;20213;-83
2021/08/19 12:20:49;;;;;;;2.65;2.08;;;;;;;;;;5047805;28;20283;-83
2021/08/19 12:23:17;;;;;;;2.10;1.90;;;;;;;;;;5049740;28;20287;-83
2021/08/19 12:25:44;;;;;;;1.83;1.52;;;;;;;;;;5051170;28;20938;-84
2021/08/19 12:28:17;;;;;;;3.47;1.85;;;;;;;;;;5050941;28;20203;-82
2021/08/19 12:31:02;;;;;;;2.28;2.03;;;;;;;;;;5033955;28;20192;-83
2021/08/19 12:33:33;;;;;;;4.00;2.03;;;;;;;;;;5041296;28;20203;-83
2021/08/19 12:36:10;;;;;;;2.65;2.08;;;;;;;;;;5055588;28;20204;-83
2021/08/19 12:38:37;;;;;;;2.15;1.70;;;;;;;;;;5056542;28;20633;-84
2021/08/19 12:41:18;;;;;;;2.50;2.08;;;;;;;;;;5056844;28;20228;-84
2021/08/19 12:43:47;;;;;;;2.67;1.60;;;;;;;;;;5056887;28;20217;-83
2021/08/19 12:46:16;;;;;;;1.65;1.55;;;;;;;;;;5054037;28;20378;-83
2021/08/19 12:48:44;;;;;;;2.38;1.70;;;;;;;;;;5054473;28;20200;-83
2021/08/19 12:51:26;;;;;;;2.85;2.10;;;;;;;;;;5054240;28;20782;-84
2021/08/19 12:54:03;;;;;;;3.35;1.98;;;;;;;;;;5039449;28;20212;-84
2021/08/19 12:56:31;;;;;;;3.85;2.00;;;;;;;;;;5034265;28;20206;-83
2021/08/19 12:58:59;;;;;;;2.63;1.83;;;;;;;;;;5034485;28;20283;-83
2021/08/19 13:01:27;;;;;;;4.70;1.90;;;;;;;;;;5033583;28;20779;-83
2021/08/19 13:03:54;;;;;;;2.42;1.88;;;;;;;;;;5039514;28;20232;-84
2021/08/19 13:06:21;;;;;;;5.53;1.90;;;;;;;;;;5034686;28;20275;-83
2021/08/19 13:08:48;;;;;;;4.72;1.65;;;;;;;;;;5033886;28;20680;-83
2021/08/19 13:11:16;;;;;;;2.05;1.65;;;;;;;;;;5034556;28;20236;-84
2021/08/19 13:13:44;;;;;;;2.20;1.77;;;;;;;;;;5033696;28;20283;-84
2021/08/19 13:16:13;;;;;;;2.35;1.52;;;;;;;;;;5033722;28;20656;-83
2021/08/19 13:18:41;;;;;;;4.85;1.95;;;;;;;;;;5033958;28;20306;-83
2021/08/19 13:21:08;;;;;;;2.25;1.88;;;;;;;;;;5033784;28;20319;-84
2021/08/19 13:23:35;;;;;;;3.63;1.88;;;;;;;;;;5033696;28;20258;-84
2021/08/19 13:26:02;;;;;;;3.17;1.80;;;;;;;;;;5033918;28;20188;-84
2021/08/19 13:28:30;;;;;;;2.00;1.60;;;;;;;;;;5033184;28;20197;-83
2021/08/19 13:30:57;;;;;;;2.15;1.75;;;;;;;;;;5033441;28;20252;-83
2021/08/19 13:33:25;;;;;;;2.20;1.60;;;;;;;;;;5033527;28;20243;-83
2021/08/19 13:35:53;;;;;;;2.55;1.48;;;;;;;;;;5033793;28;20239;-83
2021/08/19 13:38:20;;;;;;;2.58;1.58;;;;;;;;;;5033764;28;20236;-83
2021/08/19 13:40:47;;;;;;;2.80;1.73;;;;;;;;;;5032940;28;20774;-83
2021/08/19 13:43:14;;;;;;;2.45;1.60;;;;;;;;;;5032967;28;20315;-83
2021/08/19 13:45:42;;;;;;;1.80;1.35;;;;;;;;;;5041183;28;20211;-84
2021/08/19 13:48:09;;;;;;;1.48;1.35;;;;;;;;;;5053226;28;20279;-83
2021/08/19 13:50:37;;;;;;;2.05;1.77;;;;;;;;;;5052729;28;20227;-83
2021/08/19 13:53:05;;;;;;;1.52;1.13;;;;;;;;;;5053045;28;20227;-83
2021/08/19 13:55:33;;;;;;;1.23;1.10;;;;;;;;;;5035711;28;20287;-83
2021/08/19 13:58:01;;;;;;;1.40;1.30;;;;;;;;;;5032749;28;20201;-83
2021/08/19 14:00:28;;;;;;;1.70;1.42;;;;;;;;;;5033027;28;20738;-83
2021/08/19 14:02:55;;;;;;;1.85;1.10;;;;;;;;;;5032745;28;20260;-83
2021/08/19 14:05:22;;;;;;;2.25;1.40;;;;;;;;;;5032620;28;20291;-83
2021/08/19 14:07:51;;;;;;;3.42;1.73;;;;;;;;;;5032604;28;20300;-84
2021/08/19 14:10:18;;;;;;;1.95;1.40;;;;;;;;;;5032973;28;20204;-84
2021/08/19 14:13:05;;;;;;;1.52;1.10;;;;;;;;;;5032821;28;20240;-83
2021/08/19 14:15:32;;;;;;;2.65;1.60;;;;;;;;;;5043799;28;20254;-83
2021/08/19 14:17:59;;;;;;;2.55;1.50;;;;;;;;;;5032997;28;20291;-84
2021/08/19 14:20:26;;;;;;;1.80;1.40;;;;;;;;;;5032703;28;20292;-84
2021/08/19 14:22:55;;;;;;;2.88;1.50;;;;;;;;;;5032251;28;20324;-84
2021/08/19 14:25:22;;;;;;;1.92;1.50;;;;;;;;;;5032972;28;20254;-84
2021/08/19 14:27:49;;;;;;;2.00;1.30;;;;;;;;;;5032462;28;20239;-84
2021/08/19 14:30:16;;;;;;;2.22;1.55;;;;;;;;;;5032649;28;20227;-83
2021/08/19 14:32:44;;;;;;;1.90;1.50;;;;;;;;;;5032137;28;20283;-84
2021/08/19 14:35:11;;;;;;;1.70;1.38;;;;;;;;;;5032307;28;20243;-83
2021/08/19 14:37:39;;;;;;;1.77;1.50;;;;;;;;;;5032808;28;20291;-83
2021/08/19 14:40:09;;;;;;;2.00;1.77;;;;;;;;;;5032674;28;20201;-83
2021/08/19 14:42:36;;;;;;;2.38;1.75;;;;;;;;;;5032091;28;20311;-83
2021/08/19 14:45:03;;;;;;;1.70;1.50;;;;;;;;;;5050648;28;20231;-84
2021/08/19 14:47:30;;;;;;;2.20;1.55;;;;;;;;;;5045721;28;20280;-83
2021/08/19 14:49:57;;;;;;;2.28;1.70;;;;;;;;;;5032378;28;20554;-83
2021/08/19 14:52:25;;;;;;;4.43;1.73;;;;;;;;;;5032437;28;20317;-83